Athina V — 9H8661 — position and weather

sailwx.info

Track history (hours):
 
Tides and Currents Weather Stations Pressure Air Temp Water Temp Dewpoint Dewpoint Depression Visibility Wind Speed Wind Dir Waves Ship Positions

Athina V

Last reported at 2015-Jul-03 08:05 UTC. Time now 2015-Jul-07 17:32 UTC.
Position N 37°58' E 023°34'.

Length 19 m; draft 3 m.

Type: Sailing vessel. MMSI: 256655000.

Date/timePositionNaut miles runAvg speedWind from/ knotsBaromVisibWave heightAir tempDewpointWater temp
2015-Jul-03 08:05N 37°58' E 023°34'0 0.2
2015-Jul-03 07:33N 37°58' E 023°34'3 3.1
2015-Jul-03 06:33N 37°55' E 023°37'5 5.4
2015-Jul-03 05:34N 37°50' E 023°38'6 6.4
2015-Jul-03 04:34N 37°44' E 023°35'8 8.0
2015-Jul-03 03:34N 37°37' E 023°30'7 6.6
2015-Jul-03 02:34N 37°32' E 023°25'5 0.1
2015-Jul-01 15:20N 37°29' E 023°30'  
2015-Jun-29 06:22N 36°26' E 025°04'6 7.4
2015-Jun-29 05:33N 36°25' E 025°12'6 6.4
2015-Jun-29 04:33N 36°23' E 025°19'5 4.6
2015-Jun-29 03:32N 36°20' E 025°24'1 0.1
2015-Jun-28 17:30N 36°20' E 025°26'0 0.0
2015-Jun-28 16:32N 36°20' E 025°26'0 0.0
2015-Jun-27 12:30N 36°20' E 025°26'4 4.3
2015-Jun-27 11:33N 36°22' E 025°21'5 5.4
2015-Jun-27 10:33N 36°27' E 025°23'17 4.1
2015-Jun-27 06:28N 36°40' E 025°10'  
2015-Jun-24 13:08N 36°51' E 023°58'4 6.6
2015-Jun-24 12:33N 36°53' E 023°54'7 6.6
2015-Jun-24 11:34N 36°57' E 023°47'6 6.2
2015-Jun-24 10:33N 37°00' E 023°41'11 5.2
2015-Jun-24 08:30N 37°06' E 023°30'6 6.4
2015-Jun-24 07:30N 37°10' E 023°23'  
Track history (hours):
 
Tides and Currents Weather Stations Pressure Air Temp Water Temp Dewpoint Dewpoint Depression Visibility Wind Speed Wind Dir Waves Ship Positions

Athina V

Last reported at 2015-Jul-03 08:05 UTC. Time now 2015-Jul-07 17:32 UTC.
Position N 37°58' E 023°34'.

Length 19 m; draft 3 m.

Type: Sailing vessel. MMSI: 256655000.

Date/timePositionNaut miles runAvg speedWind from/ knotsBaromVisibWave heightAir tempDewpointWater temp
2015-Jul-03 08:05N 37°58' E 023°34'0 0.2
2015-Jul-03 07:33N 37°58' E 023°34'3 3.1
2015-Jul-03 06:33N 37°55' E 023°37'5 5.4
2015-Jul-03 05:34N 37°50' E 023°38'6 6.4
2015-Jul-03 04:34N 37°44' E 023°35'8 8.0
2015-Jul-03 03:34N 37°37' E 023°30'7 6.6
2015-Jul-03 02:34N 37°32' E 023°25'5 0.1
2015-Jul-01 15:20N 37°29' E 023°30'  
2015-Jun-29 06:22N 36°26' E 025°04'6 7.4
2015-Jun-29 05:33N 36°25' E 025°12'6 6.4
2015-Jun-29 04:33N 36°23' E 025°19'5 4.6
2015-Jun-29 03:32N 36°20' E 025°24'1 0.1
2015-Jun-28 17:30N 36°20' E 025°26'0 0.0
2015-Jun-28 16:32N 36°20' E 025°26'0 0.0
2015-Jun-27 12:30N 36°20' E 025°26'4 4.3
2015-Jun-27 11:33N 36°22' E 025°21'5 5.4
2015-Jun-27 10:33N 36°27' E 025°23'17 4.1
2015-Jun-27 06:28N 36°40' E 025°10'  
2015-Jun-24 13:08N 36°51' E 023°58'4 6.6
2015-Jun-24 12:33N 36°53' E 023°54'7 6.6
2015-Jun-24 11:34N 36°57' E 023°47'6 6.2
2015-Jun-24 10:33N 37°00' E 023°41'11 5.2
2015-Jun-24 08:30N 37°06' E 023°30'6 6.4
2015-Jun-24 07:30N 37°10' E 023°23'  

Dump ship's entire track history